Terminal Aerodrome Forecast
Issued by NWS

Home | Current Version | Previous Version | Text Only | Print | Product List | Glossary On
Versions: 1 2 3 4 5 6 7 8 9 10 11 12 13 14 15 16 17 18 19 20 21 22 23 24 25 26 27 28 29 30 31 32 33 34 35 36 37 38 39
000
FTUS46 KEKA 201741
TAFACV
TAF
KACV 201741Z 2018/2118 31005KT P6SM SCT060 BKN250
     FM210300 10003KT 6SM BR BKN250
     FM211000 12008KT P6SM OVC060
     FM211500 14014G24KT 6SM -RA BR OVC035 WS020/17045KT=

USA.gov is the U.S. government's official web portal to all federal, state and local government web resources and services.